sensor_id;sensor_type;location;lat;lon;timestamp;P1;durP1;ratioP1;P2;durP2;ratioP2
45420;SDS011;55462;47.042;8.292;2022-12-18T00:01:44;24.27;;;17.60;;
45420;SDS011;55462;47.042;8.292;2022-12-18T00:04:20;21.23;;;17.13;;
45420;SDS011;55462;47.042;8.292;2022-12-18T00:06:47;23.97;;;17.43;;
45420;SDS011;55462;47.042;8.292;2022-12-18T00:09:12;27.83;;;18.60;;
45420;SDS011;55462;47.042;8.292;2022-12-18T00:11:39;26.90;;;17.70;;
45420;SDS011;55462;47.042;8.292;2022-12-18T00:14:04;25.77;;;18.20;;
45420;SDS011;55462;47.042;8.292;2022-12-18T00:16:30;25.23;;;18.47;;
45420;SDS011;55462;47.042;8.292;2022-12-18T00:18:58;26.23;;;18.03;;
45420;SDS011;55462;47.042;8.292;2022-12-18T00:21:24;23.87;;;17.47;;
45420;SDS011;55462;47.042;8.292;2022-12-18T00:23:49;23.63;;;18.50;;
45420;SDS011;55462;47.042;8.292;2022-12-18T00:26:19;24.20;;;18.30;;
45420;SDS011;55462;47.042;8.292;2022-12-18T00:28:47;27.47;;;17.60;;
45420;SDS011;55462;47.042;8.292;2022-12-18T00:31:14;22.23;;;17.37;;
45420;SDS011;55462;47.042;8.292;2022-12-18T00:33:40;23.67;;;17.20;;
45420;SDS011;55462;47.042;8.292;2022-12-18T00:36:07;23.40;;;17.13;;
45420;SDS011;55462;47.042;8.292;2022-12-18T00:38:37;22.17;;;17.27;;
45420;SDS011;55462;47.042;8.292;2022-12-18T00:41:03;22.67;;;17.30;;
45420;SDS011;55462;47.042;8.292;2022-12-18T00:43:28;24.30;;;18.73;;
45420;SDS011;55462;47.042;8.292;2022-12-18T00:45:53;21.30;;;17.07;;
45420;SDS011;55462;47.042;8.292;2022-12-18T00:48:19;24.50;;;18.53;;
45420;SDS011;55462;47.042;8.292;2022-12-18T00:50:44;25.53;;;18.97;;
45420;SDS011;55462;47.042;8.292;2022-12-18T00:53:10;20.97;;;16.77;;
45420;SDS011;55462;47.042;8.292;2022-12-18T00:55:37;20.27;;;16.23;;
45420;SDS011;55462;47.042;8.292;2022-12-18T00:58:02;24.10;;;18.67;;
45420;SDS011;55462;47.042;8.292;2022-12-18T01:00:28;21.37;;;17.07;;
45420;SDS011;55462;47.042;8.292;2022-12-18T01:02:53;22.60;;;17.43;;
45420;SDS011;55462;47.042;8.292;2022-12-18T01:05:18;23.30;;;18.10;;
45420;SDS011;55462;47.042;8.292;2022-12-18T01:07:44;23.57;;;17.70;;
45420;SDS011;55462;47.042;8.292;2022-12-18T01:10:09;22.77;;;17.10;;
45420;SDS011;55462;47.042;8.292;2022-12-18T01:12:37;21.73;;;17.07;;
45420;SDS011;55462;47.042;8.292;2022-12-18T01:15:03;23.77;;;17.50;;
45420;SDS011;55462;47.042;8.292;2022-12-18T01:17:30;22.87;;;17.87;;
45420;SDS011;55462;47.042;8.292;2022-12-18T01:19:55;25.67;;;18.50;;
45420;SDS011;55462;47.042;8.292;2022-12-18T01:22:20;26.90;;;19.60;;
45420;SDS011;55462;47.042;8.292;2022-12-18T01:24:46;24.70;;;18.10;;
45420;SDS011;55462;47.042;8.292;2022-12-18T01:27:11;24.47;;;18.70;;
45420;SDS011;55462;47.042;8.292;2022-12-18T01:29:36;22.40;;;17.77;;
45420;SDS011;55462;47.042;8.292;2022-12-18T01:32:02;22.97;;;17.50;;
45420;SDS011;55462;47.042;8.292;2022-12-18T01:34:27;20.10;;;16.00;;
45420;SDS011;55462;47.042;8.292;2022-12-18T01:36:52;22.23;;;17.13;;
45420;SDS011;55462;47.042;8.292;2022-12-18T01:39:18;22.33;;;16.30;;
45420;SDS011;55462;47.042;8.292;2022-12-18T01:41:44;22.73;;;16.83;;
45420;SDS011;55462;47.042;8.292;2022-12-18T01:44:51;25.80;;;17.23;;
45420;SDS011;55462;47.042;8.292;2022-12-18T01:47:28;22.70;;;17.87;;
45420;SDS011;55462;47.042;8.292;2022-12-18T01:49:55;22.83;;;17.07;;
45420;SDS011;55462;47.042;8.292;2022-12-18T01:52:21;23.50;;;17.20;;
45420;SDS011;55462;47.042;8.292;2022-12-18T01:54:48;21.23;;;16.83;;
45420;SDS011;55462;47.042;8.292;2022-12-18T01:57:14;21.27;;;16.10;;
45420;SDS011;55462;47.042;8.292;2022-12-18T01:59:39;25.53;;;16.73;;
45420;SDS011;55462;47.042;8.292;2022-12-18T02:02:06;22.73;;;17.87;;
45420;SDS011;55462;47.042;8.292;2022-12-18T02:04:32;22.73;;;16.43;;
45420;SDS011;55462;47.042;8.292;2022-12-18T02:07:09;22.00;;;16.13;;
45420;SDS011;55462;47.042;8.292;2022-12-18T02:09:47;21.67;;;16.43;;
45420;SDS011;55462;47.042;8.292;2022-12-18T02:12:16;21.87;;;16.83;;
45420;SDS011;55462;47.042;8.292;2022-12-18T02:14:46;20.73;;;16.27;;
45420;SDS011;55462;47.042;8.292;2022-12-18T02:17:47;23.87;;;16.67;;
45420;SDS011;55462;47.042;8.292;2022-12-18T02:20:30;21.07;;;15.70;;
45420;SDS011;55462;47.042;8.292;2022-12-18T02:28:54;21.47;;;16.03;;
45420;SDS011;55462;47.042;8.292;2022-12-18T02:31:23;21.03;;;15.67;;
45420;SDS011;55462;47.042;8.292;2022-12-18T02:33:52;24.67;;;16.47;;
45420;SDS011;55462;47.042;8.292;2022-12-18T02:36:18;21.43;;;17.23;;
45420;SDS011;55462;47.042;8.292;2022-12-18T02:38:45;23.77;;;16.67;;
45420;SDS011;55462;47.042;8.292;2022-12-18T02:41:11;22.40;;;17.27;;
45420;SDS011;55462;47.042;8.292;2022-12-18T02:43:38;21.53;;;17.33;;
45420;SDS011;55462;47.042;8.292;2022-12-18T02:51:56;22.00;;;16.23;;
45420;SDS011;55462;47.042;8.292;2022-12-18T02:54:40;20.77;;;15.93;;
45420;SDS011;55462;47.042;8.292;2022-12-18T03:05:21;23.03;;;16.90;;
45420;SDS011;55462;47.042;8.292;2022-12-18T03:10:27;38.70;;;16.67;;
45420;SDS011;55462;47.042;8.292;2022-12-18T03:13:04;20.87;;;16.07;;
45420;SDS011;55462;47.042;8.292;2022-12-18T03:15:33;20.73;;;15.97;;
45420;SDS011;55462;47.042;8.292;2022-12-18T03:18:02;22.80;;;16.00;;
45420;SDS011;55462;47.042;8.292;2022-12-18T03:20:34;21.73;;;16.07;;
45420;SDS011;55462;47.042;8.292;2022-12-18T03:23:02;20.73;;;16.17;;
45420;SDS011;55462;47.042;8.292;2022-12-18T03:25:31;21.83;;;16.70;;
45420;SDS011;55462;47.042;8.292;2022-12-18T03:27:58;22.93;;;17.00;;
45420;SDS011;55462;47.042;8.292;2022-12-18T03:30:24;22.93;;;16.37;;
45420;SDS011;55462;47.042;8.292;2022-12-18T03:33:12;21.27;;;15.67;;
45420;SDS011;55462;47.042;8.292;2022-12-18T03:35:42;18.50;;;14.97;;
45420;SDS011;55462;47.042;8.292;2022-12-18T03:38:08;19.87;;;14.80;;
45420;SDS011;55462;47.042;8.292;2022-12-18T03:40:41;20.87;;;15.73;;
45420;SDS011;55462;47.042;8.292;2022-12-18T03:43:16;18.40;;;14.87;;
45420;SDS011;55462;47.042;8.292;2022-12-18T03:45:46;21.73;;;15.73;;
45420;SDS011;55462;47.042;8.292;2022-12-18T03:48:26;19.07;;;14.27;;
45420;SDS011;55462;47.042;8.292;2022-12-18T03:53:57;19.73;;;14.80;;
45420;SDS011;55462;47.042;8.292;2022-12-18T03:56:25;19.53;;;14.67;;
45420;SDS011;55462;47.042;8.292;2022-12-18T03:58:52;20.70;;;15.60;;
45420;SDS011;55462;47.042;8.292;2022-12-18T04:01:18;19.50;;;15.27;;
45420;SDS011;55462;47.042;8.292;2022-12-18T04:03:48;20.97;;;16.70;;
45420;SDS011;55462;47.042;8.292;2022-12-18T04:06:14;19.43;;;14.97;;
45420;SDS011;55462;47.042;8.292;2022-12-18T04:08:41;20.83;;;14.67;;
45420;SDS011;55462;47.042;8.292;2022-12-18T04:11:07;19.37;;;14.20;;
45420;SDS011;55462;47.042;8.292;2022-12-18T04:13:33;23.53;;;15.43;;
45420;SDS011;55462;47.042;8.292;2022-12-18T04:16:00;20.97;;;14.23;;
45420;SDS011;55462;47.042;8.292;2022-12-18T04:18:26;20.87;;;14.83;;
45420;SDS011;55462;47.042;8.292;2022-12-18T04:20:51;20.17;;;15.13;;
45420;SDS011;55462;47.042;8.292;2022-12-18T04:23:17;21.80;;;16.10;;
45420;SDS011;55462;47.042;8.292;2022-12-18T04:25:42;21.20;;;15.50;;
45420;SDS011;55462;47.042;8.292;2022-12-18T04:28:07;21.30;;;15.27;;
45420;SDS011;55462;47.042;8.292;2022-12-18T04:30:32;20.33;;;14.63;;
45420;SDS011;55462;47.042;8.292;2022-12-18T04:32:58;19.53;;;14.93;;
45420;SDS011;55462;47.042;8.292;2022-12-18T04:35:23;22.80;;;15.83;;
45420;SDS011;55462;47.042;8.292;2022-12-18T04:37:48;22.27;;;15.60;;
45420;SDS011;55462;47.042;8.292;2022-12-18T04:40:14;23.17;;;16.77;;
45420;SDS011;55462;47.042;8.292;2022-12-18T04:42:40;22.07;;;15.77;;
45420;SDS011;55462;47.042;8.292;2022-12-18T04:45:05;23.40;;;15.83;;
45420;SDS011;55462;47.042;8.292;2022-12-18T04:47:31;21.53;;;15.37;;
45420;SDS011;55462;47.042;8.292;2022-12-18T04:49:57;21.00;;;15.20;;
45420;SDS011;55462;47.042;8.292;2022-12-18T04:52:22;20.30;;;15.07;;
45420;SDS011;55462;47.042;8.292;2022-12-18T04:54:47;20.03;;;13.90;;
45420;SDS011;55462;47.042;8.292;2022-12-18T04:57:13;18.80;;;14.10;;
45420;SDS011;55462;47.042;8.292;2022-12-18T04:59:38;19.10;;;14.13;;
45420;SDS011;55462;47.042;8.292;2022-12-18T05:02:03;21.70;;;15.10;;
45420;SDS011;55462;47.042;8.292;2022-12-18T05:04:29;20.93;;;14.77;;
45420;SDS011;55462;47.042;8.292;2022-12-18T05:06:54;20.50;;;14.70;;
45420;SDS011;55462;47.042;8.292;2022-12-18T05:09:20;20.50;;;14.63;;
45420;SDS011;55462;47.042;8.292;2022-12-18T05:11:45;22.07;;;15.70;;
45420;SDS011;55462;47.042;8.292;2022-12-18T05:14:11;19.40;;;14.23;;
45420;SDS011;55462;47.042;8.292;2022-12-18T05:16:37;22.53;;;15.93;;
45420;SDS011;55462;47.042;8.292;2022-12-18T05:19:02;21.50;;;15.80;;
45420;SDS011;55462;47.042;8.292;2022-12-18T05:21:28;18.43;;;13.83;;
45420;SDS011;55462;47.042;8.292;2022-12-18T05:23:53;18.53;;;13.77;;
45420;SDS011;55462;47.042;8.292;2022-12-18T05:26:18;20.07;;;15.07;;
45420;SDS011;55462;47.042;8.292;2022-12-18T05:28:44;20.43;;;14.53;;
45420;SDS011;55462;47.042;8.292;2022-12-18T05:31:09;19.17;;;13.57;;
45420;SDS011;55462;47.042;8.292;2022-12-18T05:33:35;19.63;;;14.50;;
45420;SDS011;55462;47.042;8.292;2022-12-18T05:36:01;16.63;;;12.67;;
45420;SDS011;55462;47.042;8.292;2022-12-18T05:38:28;20.73;;;13.97;;
45420;SDS011;55462;47.042;8.292;2022-12-18T05:40:54;17.67;;;14.33;;
45420;SDS011;55462;47.042;8.292;2022-12-18T05:43:20;18.10;;;13.87;;
45420;SDS011;55462;47.042;8.292;2022-12-18T05:45:46;19.70;;;14.53;;
45420;SDS011;55462;47.042;8.292;2022-12-18T05:48:12;19.57;;;14.43;;
45420;SDS011;55462;47.042;8.292;2022-12-18T05:50:39;18.97;;;13.80;;
45420;SDS011;55462;47.042;8.292;2022-12-18T05:53:06;20.23;;;14.10;;
45420;SDS011;55462;47.042;8.292;2022-12-18T05:55:33;17.30;;;13.43;;
45420;SDS011;55462;47.042;8.292;2022-12-18T05:58:02;19.90;;;13.80;;
45420;SDS011;55462;47.042;8.292;2022-12-18T06:00:28;17.70;;;13.53;;
45420;SDS011;55462;47.042;8.292;2022-12-18T06:02:54;19.90;;;13.87;;
45420;SDS011;55462;47.042;8.292;2022-12-18T06:05:19;19.63;;;14.03;;
45420;SDS011;55462;47.042;8.292;2022-12-18T06:07:44;17.13;;;11.70;;
45420;SDS011;55462;47.042;8.292;2022-12-18T06:10:10;16.07;;;12.57;;
45420;SDS011;55462;47.042;8.292;2022-12-18T06:12:36;18.50;;;12.77;;
45420;SDS011;55462;47.042;8.292;2022-12-18T06:15:01;17.40;;;13.00;;
45420;SDS011;55462;47.042;8.292;2022-12-18T06:17:28;17.27;;;13.20;;
45420;SDS011;55462;47.042;8.292;2022-12-18T06:19:54;16.40;;;12.43;;
45420;SDS011;55462;47.042;8.292;2022-12-18T06:22:19;19.63;;;13.60;;
45420;SDS011;55462;47.042;8.292;2022-12-18T06:24:45;19.60;;;13.83;;
45420;SDS011;55462;47.042;8.292;2022-12-18T06:27:10;16.63;;;11.43;;
45420;SDS011;55462;47.042;8.292;2022-12-18T06:29:35;17.23;;;12.67;;
45420;SDS011;55462;47.042;8.292;2022-12-18T06:32:01;18.10;;;11.93;;
45420;SDS011;55462;47.042;8.292;2022-12-18T06:34:26;16.27;;;12.40;;
45420;SDS011;55462;47.042;8.292;2022-12-18T06:36:51;16.33;;;11.57;;
45420;SDS011;55462;47.042;8.292;2022-12-18T06:39:16;16.00;;;11.93;;
45420;SDS011;55462;47.042;8.292;2022-12-18T06:41:42;16.33;;;11.83;;
45420;SDS011;55462;47.042;8.292;2022-12-18T06:44:07;15.47;;;11.40;;
45420;SDS011;55462;47.042;8.292;2022-12-18T06:46:32;18.27;;;12.90;;
45420;SDS011;55462;47.042;8.292;2022-12-18T06:48:58;17.00;;;11.90;;
45420;SDS011;55462;47.042;8.292;2022-12-18T06:51:23;18.53;;;11.57;;
45420;SDS011;55462;47.042;8.292;2022-12-18T06:53:49;17.13;;;12.77;;
45420;SDS011;55462;47.042;8.292;2022-12-18T06:56:14;18.63;;;13.07;;
45420;SDS011;55462;47.042;8.292;2022-12-18T06:58:40;16.07;;;11.93;;
45420;SDS011;55462;47.042;8.292;2022-12-18T07:01:06;17.87;;;13.03;;
45420;SDS011;55462;47.042;8.292;2022-12-18T07:03:33;19.33;;;13.43;;
45420;SDS011;55462;47.042;8.292;2022-12-18T07:05:58;18.57;;;13.67;;
45420;SDS011;55462;47.042;8.292;2022-12-18T07:08:24;20.77;;;15.07;;
45420;SDS011;55462;47.042;8.292;2022-12-18T07:10:49;22.17;;;14.40;;
45420;SDS011;55462;47.042;8.292;2022-12-18T07:13:15;22.03;;;14.63;;
45420;SDS011;55462;47.042;8.292;2022-12-18T07:15:41;16.20;;;13.27;;
45420;SDS011;55462;47.042;8.292;2022-12-18T07:18:06;18.30;;;13.80;;
45420;SDS011;55462;47.042;8.292;2022-12-18T07:20:32;20.33;;;13.83;;
45420;SDS011;55462;47.042;8.292;2022-12-18T07:22:57;18.87;;;13.67;;
45420;SDS011;55462;47.042;8.292;2022-12-18T07:25:22;19.03;;;13.63;;
45420;SDS011;55462;47.042;8.292;2022-12-18T07:27:48;17.43;;;13.47;;
45420;SDS011;55462;47.042;8.292;2022-12-18T07:30:13;18.83;;;14.07;;
45420;SDS011;55462;47.042;8.292;2022-12-18T07:32:38;21.27;;;15.03;;
45420;SDS011;55462;47.042;8.292;2022-12-18T07:35:04;23.83;;;14.90;;
45420;SDS011;55462;47.042;8.292;2022-12-18T07:37:29;22.50;;;15.40;;
45420;SDS011;55462;47.042;8.292;2022-12-18T07:39:54;18.10;;;13.40;;
45420;SDS011;55462;47.042;8.292;2022-12-18T07:42:20;21.23;;;14.43;;
45420;SDS011;55462;47.042;8.292;2022-12-18T07:44:58;19.00;;;14.63;;
45420;SDS011;55462;47.042;8.292;2022-12-18T07:47:23;20.00;;;14.00;;
45420;SDS011;55462;47.042;8.292;2022-12-18T07:49:49;18.50;;;13.73;;
45420;SDS011;55462;47.042;8.292;2022-12-18T07:52:15;17.37;;;13.13;;
45420;SDS011;55462;47.042;8.292;2022-12-18T07:54:40;19.63;;;13.93;;
45420;SDS011;55462;47.042;8.292;2022-12-18T07:57:06;19.13;;;14.07;;
45420;SDS011;55462;47.042;8.292;2022-12-18T07:59:31;19.47;;;14.07;;
45420;SDS011;55462;47.042;8.292;2022-12-18T08:01:57;19.57;;;14.43;;
45420;SDS011;55462;47.042;8.292;2022-12-18T08:04:22;16.90;;;13.63;;
45420;SDS011;55462;47.042;8.292;2022-12-18T08:06:47;17.03;;;12.97;;
45420;SDS011;55462;47.042;8.292;2022-12-18T08:09:13;20.23;;;14.97;;
45420;SDS011;55462;47.042;8.292;2022-12-18T08:11:38;22.60;;;15.70;;
45420;SDS011;55462;47.042;8.292;2022-12-18T08:14:03;18.90;;;13.67;;
45420;SDS011;55462;47.042;8.292;2022-12-18T08:16:29;20.10;;;14.20;;
45420;SDS011;55462;47.042;8.292;2022-12-18T08:18:55;21.63;;;13.70;;
45420;SDS011;55462;47.042;8.292;2022-12-18T08:21:21;18.27;;;13.90;;
45420;SDS011;55462;47.042;8.292;2022-12-18T08:23:52;15.17;;;11.80;;
45420;SDS011;55462;47.042;8.292;2022-12-18T08:26:18;15.83;;;12.03;;
45420;SDS011;55462;47.042;8.292;2022-12-18T08:28:44;19.13;;;14.50;;
45420;SDS011;55462;47.042;8.292;2022-12-18T08:31:09;17.53;;;13.33;;
45420;SDS011;55462;47.042;8.292;2022-12-18T08:33:35;20.23;;;15.23;;
45420;SDS011;55462;47.042;8.292;2022-12-18T08:36:03;21.20;;;14.03;;
45420;SDS011;55462;47.042;8.292;2022-12-18T08:38:29;21.00;;;14.43;;
45420;SDS011;55462;47.042;8.292;2022-12-18T08:40:58;17.37;;;14.00;;
45420;SDS011;55462;47.042;8.292;2022-12-18T08:43:30;19.80;;;14.13;;
45420;SDS011;55462;47.042;8.292;2022-12-18T08:46:26;19.13;;;14.70;;
45420;SDS011;55462;47.042;8.292;2022-12-18T08:48:52;19.33;;;13.90;;
45420;SDS011;55462;47.042;8.292;2022-12-18T08:51:18;19.90;;;13.70;;
45420;SDS011;55462;47.042;8.292;2022-12-18T08:53:44;16.57;;;12.73;;
45420;SDS011;55462;47.042;8.292;2022-12-18T08:56:10;18.23;;;13.17;;
45420;SDS011;55462;47.042;8.292;2022-12-18T08:58:35;15.90;;;13.33;;
45420;SDS011;55462;47.042;8.292;2022-12-18T09:01:01;16.63;;;12.83;;
45420;SDS011;55462;47.042;8.292;2022-12-18T09:03:27;16.37;;;12.60;;
45420;SDS011;55462;47.042;8.292;2022-12-18T09:05:53;17.70;;;13.60;;
45420;SDS011;55462;47.042;8.292;2022-12-18T09:08:18;16.80;;;11.63;;
45420;SDS011;55462;47.042;8.292;2022-12-18T09:10:44;14.73;;;12.30;;
45420;SDS011;55462;47.042;8.292;2022-12-18T09:13:10;17.73;;;13.23;;
45420;SDS011;55462;47.042;8.292;2022-12-18T09:15:40;18.37;;;13.17;;
45420;SDS011;55462;47.042;8.292;2022-12-18T09:18:32;17.70;;;13.23;;
45420;SDS011;55462;47.042;8.292;2022-12-18T09:20:57;17.97;;;12.93;;
45420;SDS011;55462;47.042;8.292;2022-12-18T09:23:22;17.73;;;13.20;;
45420;SDS011;55462;47.042;8.292;2022-12-18T09:25:48;18.60;;;13.23;;
45420;SDS011;55462;47.042;8.292;2022-12-18T09:28:14;15.30;;;12.33;;
45420;SDS011;55462;47.042;8.292;2022-12-18T09:30:46;17.33;;;12.97;;
45420;SDS011;55462;47.042;8.292;2022-12-18T09:33:13;16.63;;;12.93;;
45420;SDS011;55462;47.042;8.292;2022-12-18T09:35:39;19.03;;;13.50;;
45420;SDS011;55462;47.042;8.292;2022-12-18T09:38:05;17.23;;;13.07;;
45420;SDS011;55462;47.042;8.292;2022-12-18T09:40:35;17.20;;;12.17;;
45420;SDS011;55462;47.042;8.292;2022-12-18T09:43:03;18.77;;;13.97;;
45420;SDS011;55462;47.042;8.292;2022-12-18T09:45:30;16.40;;;13.43;;
45420;SDS011;55462;47.042;8.292;2022-12-18T09:48:05;18.10;;;13.13;;
45420;SDS011;55462;47.042;8.292;2022-12-18T09:50:33;18.07;;;12.83;;
45420;SDS011;55462;47.042;8.292;2022-12-18T09:53:09;17.90;;;12.90;;
45420;SDS011;55462;47.042;8.292;2022-12-18T09:55:42;16.07;;;12.40;;
45420;SDS011;55462;47.042;8.292;2022-12-18T09:58:31;19.13;;;13.10;;
45420;SDS011;55462;47.042;8.292;2022-12-18T10:01:00;18.73;;;12.70;;
45420;SDS011;55462;47.042;8.292;2022-12-18T10:03:26;15.47;;;12.13;;
45420;SDS011;55462;47.042;8.292;2022-12-18T10:08:44;19.23;;;12.90;;
45420;SDS011;55462;47.042;8.292;2022-12-18T10:11:20;20.47;;;14.13;;
45420;SDS011;55462;47.042;8.292;2022-12-18T10:14:40;17.67;;;12.13;;
45420;SDS011;55462;47.042;8.292;2022-12-18T10:19:27;20.17;;;13.83;;
45420;SDS011;55462;47.042;8.292;2022-12-18T10:27:42;22.53;;;15.13;;
45420;SDS011;55462;47.042;8.292;2022-12-18T10:30:17;19.93;;;14.97;;
45420;SDS011;55462;47.042;8.292;2022-12-18T10:32:44;18.90;;;13.90;;
45420;SDS011;55462;47.042;8.292;2022-12-18T10:35:28;20.00;;;14.23;;
45420;SDS011;55462;47.042;8.292;2022-12-18T10:41:24;22.80;;;16.07;;
45420;SDS011;55462;47.042;8.292;2022-12-18T10:43:31;19.50;;;13.87;;
45420;SDS011;55462;47.042;8.292;2022-12-18T10:48:35;21.03;;;14.70;;
45420;SDS011;55462;47.042;8.292;2022-12-18T10:51:26;16.77;;;12.80;;
45420;SDS011;55462;47.042;8.292;2022-12-18T10:53:54;17.63;;;13.33;;
45420;SDS011;55462;47.042;8.292;2022-12-18T10:56:21;17.03;;;12.83;;
45420;SDS011;55462;47.042;8.292;2022-12-18T10:58:55;19.33;;;14.10;;
45420;SDS011;55462;47.042;8.292;2022-12-18T11:01:25;20.30;;;14.90;;
45420;SDS011;55462;47.042;8.292;2022-12-18T11:06:21;19.43;;;13.13;;
45420;SDS011;55462;47.042;8.292;2022-12-18T11:09:03;17.00;;;13.63;;
45420;SDS011;55462;47.042;8.292;2022-12-18T11:11:29;17.60;;;14.20;;
45420;SDS011;55462;47.042;8.292;2022-12-18T11:13:58;17.60;;;13.20;;
45420;SDS011;55462;47.042;8.292;2022-12-18T11:16:26;19.37;;;13.03;;
45420;SDS011;55462;47.042;8.292;2022-12-18T11:18:52;19.40;;;14.20;;
45420;SDS011;55462;47.042;8.292;2022-12-18T11:21:17;17.53;;;12.13;;
45420;SDS011;55462;47.042;8.292;2022-12-18T11:26:17;17.77;;;12.20;;
45420;SDS011;55462;47.042;8.292;2022-12-18T11:31:16;17.23;;;12.80;;
45420;SDS011;55462;47.042;8.292;2022-12-18T11:33:44;17.00;;;12.97;;
45420;SDS011;55462;47.042;8.292;2022-12-18T11:36:12;16.73;;;12.50;;
45420;SDS011;55462;47.042;8.292;2022-12-18T11:38:42;18.07;;;12.73;;
45420;SDS011;55462;47.042;8.292;2022-12-18T11:44:24;17.93;;;12.20;;
45420;SDS011;55462;47.042;8.292;2022-12-18T11:46:55;15.40;;;12.10;;
45420;SDS011;55462;47.042;8.292;2022-12-18T11:49:26;16.90;;;12.40;;
45420;SDS011;55462;47.042;8.292;2022-12-18T11:54:52;14.70;;;12.13;;
45420;SDS011;55462;47.042;8.292;2022-12-18T12:00:15;16.03;;;12.33;;
45420;SDS011;55462;47.042;8.292;2022-12-18T12:02:51;15.80;;;12.27;;
45420;SDS011;55462;47.042;8.292;2022-12-18T12:21:59;18.63;;;12.77;;
45420;SDS011;55462;47.042;8.292;2022-12-18T12:30:02;15.73;;;11.93;;
45420;SDS011;55462;47.042;8.292;2022-12-18T12:38:19;16.77;;;12.63;;
45420;SDS011;55462;47.042;8.292;2022-12-18T12:40:51;16.37;;;12.23;;
45420;SDS011;55462;47.042;8.292;2022-12-18T12:43:22;16.37;;;12.57;;
45420;SDS011;55462;47.042;8.292;2022-12-18T12:45:55;18.33;;;13.37;;
45420;SDS011;55462;47.042;8.292;2022-12-18T12:51:17;16.97;;;11.80;;
45420;SDS011;55462;47.042;8.292;2022-12-18T12:53:45;15.70;;;11.90;;
45420;SDS011;55462;47.042;8.292;2022-12-18T12:56:11;16.17;;;12.03;;
45420;SDS011;55462;47.042;8.292;2022-12-18T13:01:09;17.97;;;12.53;;
45420;SDS011;55462;47.042;8.292;2022-12-18T13:03:43;19.23;;;13.83;;
45420;SDS011;55462;47.042;8.292;2022-12-18T13:06:29;19.40;;;13.50;;
45420;SDS011;55462;47.042;8.292;2022-12-18T13:09:01;18.63;;;13.20;;
45420;SDS011;55462;47.042;8.292;2022-12-18T13:11:37;18.03;;;13.67;;
45420;SDS011;55462;47.042;8.292;2022-12-18T13:19:39;16.20;;;12.17;;
45420;SDS011;55462;47.042;8.292;2022-12-18T13:22:04;14.50;;;12.00;;
45420;SDS011;55462;47.042;8.292;2022-12-18T13:24:30;16.50;;;12.53;;
45420;SDS011;55462;47.042;8.292;2022-12-18T13:26:55;18.03;;;12.73;;
45420;SDS011;55462;47.042;8.292;2022-12-18T13:29:40;19.37;;;13.87;;
45420;SDS011;55462;47.042;8.292;2022-12-18T13:32:18;19.47;;;13.47;;
45420;SDS011;55462;47.042;8.292;2022-12-18T13:34:47;19.13;;;13.53;;
45420;SDS011;55462;47.042;8.292;2022-12-18T13:37:58;19.03;;;13.97;;
45420;SDS011;55462;47.042;8.292;2022-12-18T13:46:45;17.87;;;13.47;;
45420;SDS011;55462;47.042;8.292;2022-12-18T13:51:34;18.73;;;14.10;;
45420;SDS011;55462;47.042;8.292;2022-12-18T13:54:01;16.43;;;13.70;;
45420;SDS011;55462;47.042;8.292;2022-12-18T13:56:31;18.63;;;13.50;;
45420;SDS011;55462;47.042;8.292;2022-12-18T14:02:21;17.63;;;13.83;;
45420;SDS011;55462;47.042;8.292;2022-12-18T14:04:52;16.77;;;12.63;;
45420;SDS011;55462;47.042;8.292;2022-12-18T14:07:22;19.90;;;14.23;;
45420;SDS011;55462;47.042;8.292;2022-12-18T14:09:52;18.10;;;14.13;;
45420;SDS011;55462;47.042;8.292;2022-12-18T14:12:26;19.10;;;15.20;;
45420;SDS011;55462;47.042;8.292;2022-12-18T14:15:19;15.70;;;12.90;;
45420;SDS011;55462;47.042;8.292;2022-12-18T14:17:47;18.30;;;14.20;;
45420;SDS011;55462;47.042;8.292;2022-12-18T14:20:13;15.53;;;12.07;;
45420;SDS011;55462;47.042;8.292;2022-12-18T14:22:39;14.93;;;12.07;;
45420;SDS011;55462;47.042;8.292;2022-12-18T14:27:51;15.90;;;12.77;;
45420;SDS011;55462;47.042;8.292;2022-12-18T14:30:32;16.97;;;12.43;;
45420;SDS011;55462;47.042;8.292;2022-12-18T14:33:01;15.47;;;12.70;;
45420;SDS011;55462;47.042;8.292;2022-12-18T14:35:29;14.33;;;11.57;;
45420;SDS011;55462;47.042;8.292;2022-12-18T14:38:09;17.60;;;12.53;;
45420;SDS011;55462;47.042;8.292;2022-12-18T14:40:51;15.90;;;11.60;;
45420;SDS011;55462;47.042;8.292;2022-12-18T14:43:17;17.40;;;12.87;;
45420;SDS011;55462;47.042;8.292;2022-12-18T14:45:43;16.83;;;11.57;;
45420;SDS011;55462;47.042;8.292;2022-12-18T14:48:13;14.77;;;11.97;;
45420;SDS011;55462;47.042;8.292;2022-12-18T14:50:54;13.07;;;11.17;;
45420;SDS011;55462;47.042;8.292;2022-12-18T14:53:35;16.50;;;12.13;;
45420;SDS011;55462;47.042;8.292;2022-12-18T14:56:03;15.40;;;11.77;;
45420;SDS011;55462;47.042;8.292;2022-12-18T14:58:38;14.10;;;11.23;;
45420;SDS011;55462;47.042;8.292;2022-12-18T15:01:04;15.80;;;11.17;;
45420;SDS011;55462;47.042;8.292;2022-12-18T15:03:29;12.00;;;10.03;;
45420;SDS011;55462;47.042;8.292;2022-12-18T15:05:55;13.93;;;10.70;;
45420;SDS011;55462;47.042;8.292;2022-12-18T15:08:28;14.90;;;11.37;;
45420;SDS011;55462;47.042;8.292;2022-12-18T15:10:55;13.43;;;10.67;;
45420;SDS011;55462;47.042;8.292;2022-12-18T15:13:22;14.00;;;11.13;;
45420;SDS011;55462;47.042;8.292;2022-12-18T15:15:49;15.90;;;11.50;;
45420;SDS011;55462;47.042;8.292;2022-12-18T15:18:15;14.30;;;11.23;;
45420;SDS011;55462;47.042;8.292;2022-12-18T15:20:44;13.50;;;10.90;;
45420;SDS011;55462;47.042;8.292;2022-12-18T15:23:18;13.13;;;10.57;;
45420;SDS011;55462;47.042;8.292;2022-12-18T15:25:44;12.87;;;10.03;;
45420;SDS011;55462;47.042;8.292;2022-12-18T15:28:53;12.97;;;10.60;;
45420;SDS011;55462;47.042;8.292;2022-12-18T15:34:12;15.43;;;10.73;;
45420;SDS011;55462;47.042;8.292;2022-12-18T15:36:18;15.73;;;11.23;;
45420;SDS011;55462;47.042;8.292;2022-12-18T15:38:47;13.77;;;10.83;;
45420;SDS011;55462;47.042;8.292;2022-12-18T15:41:14;15.93;;;10.53;;
45420;SDS011;55462;47.042;8.292;2022-12-18T15:43:40;16.80;;;11.00;;
45420;SDS011;55462;47.042;8.292;2022-12-18T15:46:08;17.63;;;10.80;;
45420;SDS011;55462;47.042;8.292;2022-12-18T15:48:45;14.27;;;10.13;;
45420;SDS011;55462;47.042;8.292;2022-12-18T15:51:31;14.03;;;10.90;;
45420;SDS011;55462;47.042;8.292;2022-12-18T15:53:58;14.57;;;10.90;;
45420;SDS011;55462;47.042;8.292;2022-12-18T15:56:25;13.73;;;10.47;;
45420;SDS011;55462;47.042;8.292;2022-12-18T15:59:10;13.23;;;10.17;;
45420;SDS011;55462;47.042;8.292;2022-12-18T16:01:37;14.33;;;10.37;;
45420;SDS011;55462;47.042;8.292;2022-12-18T16:04:02;13.27;;;10.30;;
45420;SDS011;55462;47.042;8.292;2022-12-18T16:06:28;15.10;;;11.07;;
45420;SDS011;55462;47.042;8.292;2022-12-18T16:08:53;17.37;;;11.80;;
45420;SDS011;55462;47.042;8.292;2022-12-18T16:11:23;14.37;;;11.77;;
45420;SDS011;55462;47.042;8.292;2022-12-18T16:16:55;18.47;;;12.70;;
45420;SDS011;55462;47.042;8.292;2022-12-18T16:19:22;18.63;;;15.03;;
45420;SDS011;55462;47.042;8.292;2022-12-18T16:21:48;17.13;;;13.83;;
45420;SDS011;55462;47.042;8.292;2022-12-18T16:24:15;17.37;;;12.30;;
45420;SDS011;55462;47.042;8.292;2022-12-18T16:26:42;17.40;;;13.30;;
45420;SDS011;55462;47.042;8.292;2022-12-18T16:29:08;19.33;;;13.77;;